sensor_id;sensor_type;location;lat;lon;timestamp;P1;durP1;ratioP1;P2;durP2;ratioP2
62523;SDS011;53689;56.878;60.672;2023-12-20T00:00:37;22.13;;;13.50;;
62523;SDS011;53689;56.878;60.672;2023-12-20T00:03:05;19.85;;;13.10;;
62523;SDS011;53689;56.878;60.672;2023-12-20T00:05:34;17.70;;;12.88;;
62523;SDS011;53689;56.878;60.672;2023-12-20T00:08:02;19.17;;;13.15;;
62523;SDS011;53689;56.878;60.672;2023-12-20T00:10:30;16.92;;;11.52;;
62523;SDS011;53689;56.878;60.672;2023-12-20T00:12:59;18.60;;;12.85;;
62523;SDS011;53689;56.878;60.672;2023-12-20T00:15:28;18.75;;;12.32;;
62523;SDS011;53689;56.878;60.672;2023-12-20T00:17:56;16.27;;;11.00;;
62523;SDS011;53689;56.878;60.672;2023-12-20T00:20:24;17.73;;;12.10;;
62523;SDS011;53689;56.878;60.672;2023-12-20T00:22:52;16.20;;;10.88;;
62523;SDS011;53689;56.878;60.672;2023-12-20T00:25:21;18.80;;;13.05;;
62523;SDS011;53689;56.878;60.672;2023-12-20T00:27:48;18.10;;;12.32;;
62523;SDS011;53689;56.878;60.672;2023-12-20T00:30:18;17.27;;;11.75;;
62523;SDS011;53689;56.878;60.672;2023-12-20T00:32:46;13.63;;;9.45;;
62523;SDS011;53689;56.878;60.672;2023-12-20T00:35:14;14.27;;;10.20;;
62523;SDS011;53689;56.878;60.672;2023-12-20T00:37:42;14.65;;;10.63;;
62523;SDS011;53689;56.878;60.672;2023-12-20T00:40:11;21.23;;;13.25;;
62523;SDS011;53689;56.878;60.672;2023-12-20T00:42:39;19.50;;;13.55;;
62523;SDS011;53689;56.878;60.672;2023-12-20T00:45:07;17.50;;;12.13;;
62523;SDS011;53689;56.878;60.672;2023-12-20T00:47:37;16.38;;;11.30;;
62523;SDS011;53689;56.878;60.672;2023-12-20T00:50:05;20.63;;;14.32;;
62523;SDS011;53689;56.878;60.672;2023-12-20T00:52:34;19.65;;;12.77;;
62523;SDS011;53689;56.878;60.672;2023-12-20T00:55:02;18.00;;;12.27;;
62523;SDS011;53689;56.878;60.672;2023-12-20T00:57:31;19.17;;;13.90;;
62523;SDS011;53689;56.878;60.672;2023-12-20T00:59:59;20.63;;;14.48;;
62523;SDS011;53689;56.878;60.672;2023-12-20T01:02:27;20.02;;;13.52;;
62523;SDS011;53689;56.878;60.672;2023-12-20T01:04:57;19.38;;;12.88;;
62523;SDS011;53689;56.878;60.672;2023-12-20T01:07:24;18.80;;;12.75;;
62523;SDS011;53689;56.878;60.672;2023-12-20T01:09:52;15.80;;;11.43;;
62523;SDS011;53689;56.878;60.672;2023-12-20T01:12:20;18.20;;;12.90;;
62523;SDS011;53689;56.878;60.672;2023-12-20T01:14:48;15.23;;;10.90;;
62523;SDS011;53689;56.878;60.672;2023-12-20T01:17:16;19.10;;;12.80;;
62523;SDS011;53689;56.878;60.672;2023-12-20T01:19:44;17.80;;;11.88;;
62523;SDS011;53689;56.878;60.672;2023-12-20T01:22:14;20.05;;;13.32;;
62523;SDS011;53689;56.878;60.672;2023-12-20T01:24:42;20.75;;;12.85;;
62523;SDS011;53689;56.878;60.672;2023-12-20T01:27:10;20.55;;;13.77;;
62523;SDS011;53689;56.878;60.672;2023-12-20T01:29:38;15.35;;;10.57;;
62523;SDS011;53689;56.878;60.672;2023-12-20T01:32:06;18.70;;;12.70;;
62523;SDS011;53689;56.878;60.672;2023-12-20T01:34:34;19.50;;;12.50;;
62523;SDS011;53689;56.878;60.672;2023-12-20T01:37:02;18.83;;;12.80;;
62523;SDS011;53689;56.878;60.672;2023-12-20T01:39:31;18.75;;;12.43;;
62523;SDS011;53689;56.878;60.672;2023-12-20T01:41:59;16.33;;;11.07;;
62523;SDS011;53689;56.878;60.672;2023-12-20T01:44:27;17.95;;;12.20;;
62523;SDS011;53689;56.878;60.672;2023-12-20T01:46:55;16.20;;;12.30;;
62523;SDS011;53689;56.878;60.672;2023-12-20T01:49:23;15.77;;;10.70;;
62523;SDS011;53689;56.878;60.672;2023-12-20T01:51:52;14.35;;;10.35;;
62523;SDS011;53689;56.878;60.672;2023-12-20T01:54:20;19.95;;;12.25;;
62523;SDS011;53689;56.878;60.672;2023-12-20T01:56:49;15.18;;;10.63;;
62523;SDS011;53689;56.878;60.672;2023-12-20T01:59:18;16.52;;;11.02;;
62523;SDS011;53689;56.878;60.672;2023-12-20T02:01:47;14.68;;;10.75;;
62523;SDS011;53689;56.878;60.672;2023-12-20T02:04:16;18.27;;;12.82;;
62523;SDS011;53689;56.878;60.672;2023-12-20T02:06:44;17.10;;;11.95;;
62523;SDS011;53689;56.878;60.672;2023-12-20T02:09:14;16.00;;;11.50;;
62523;SDS011;53689;56.878;60.672;2023-12-20T02:11:42;16.60;;;12.90;;
62523;SDS011;53689;56.878;60.672;2023-12-20T02:14:12;17.08;;;11.65;;
62523;SDS011;53689;56.878;60.672;2023-12-20T02:16:39;16.50;;;11.77;;
62523;SDS011;53689;56.878;60.672;2023-12-20T02:19:10;19.23;;;12.68;;
62523;SDS011;53689;56.878;60.672;2023-12-20T02:21:43;16.30;;;12.30;;
62523;SDS011;53689;56.878;60.672;2023-12-20T02:24:11;17.40;;;12.85;;
62523;SDS011;53689;56.878;60.672;2023-12-20T02:26:39;16.42;;;11.23;;
62523;SDS011;53689;56.878;60.672;2023-12-20T02:29:12;15.15;;;11.93;;
62523;SDS011;53689;56.878;60.672;2023-12-20T02:31:40;17.33;;;12.57;;
62523;SDS011;53689;56.878;60.672;2023-12-20T02:34:08;14.77;;;11.02;;
62523;SDS011;53689;56.878;60.672;2023-12-20T02:36:36;16.35;;;11.52;;
62523;SDS011;53689;56.878;60.672;2023-12-20T02:39:05;17.00;;;12.15;;
62523;SDS011;53689;56.878;60.672;2023-12-20T02:41:33;15.98;;;12.10;;
62523;SDS011;53689;56.878;60.672;2023-12-20T02:44:01;15.13;;;11.55;;
62523;SDS011;53689;56.878;60.672;2023-12-20T02:46:30;18.23;;;13.57;;
62523;SDS011;53689;56.878;60.672;2023-12-20T02:48:59;15.98;;;12.55;;
62523;SDS011;53689;56.878;60.672;2023-12-20T02:51:26;18.38;;;14.30;;
62523;SDS011;53689;56.878;60.672;2023-12-20T02:53:54;16.60;;;11.75;;
62523;SDS011;53689;56.878;60.672;2023-12-20T02:56:24;16.23;;;12.13;;
62523;SDS011;53689;56.878;60.672;2023-12-20T02:58:52;15.90;;;11.65;;
62523;SDS011;53689;56.878;60.672;2023-12-20T03:01:20;17.05;;;12.30;;
62523;SDS011;53689;56.878;60.672;2023-12-20T03:03:48;17.85;;;12.18;;
62523;SDS011;53689;56.878;60.672;2023-12-20T03:06:16;16.15;;;11.85;;
62523;SDS011;53689;56.878;60.672;2023-12-20T03:08:45;18.45;;;13.35;;
62523;SDS011;53689;56.878;60.672;2023-12-20T03:11:13;15.98;;;12.68;;
62523;SDS011;53689;56.878;60.672;2023-12-20T03:13:42;17.52;;;13.02;;
62523;SDS011;53689;56.878;60.672;2023-12-20T03:16:10;15.98;;;11.40;;
62523;SDS011;53689;56.878;60.672;2023-12-20T03:18:39;20.20;;;13.25;;
62523;SDS011;53689;56.878;60.672;2023-12-20T03:21:07;17.48;;;13.35;;
62523;SDS011;53689;56.878;60.672;2023-12-20T03:23:35;17.05;;;13.18;;
62523;SDS011;53689;56.878;60.672;2023-12-20T03:26:03;17.50;;;11.90;;
62523;SDS011;53689;56.878;60.672;2023-12-20T03:28:33;16.50;;;12.60;;
62523;SDS011;53689;56.878;60.672;2023-12-20T03:31:04;21.73;;;14.07;;
62523;SDS011;53689;56.878;60.672;2023-12-20T03:33:32;17.77;;;12.85;;
62523;SDS011;53689;56.878;60.672;2023-12-20T03:36:01;17.63;;;12.82;;
62523;SDS011;53689;56.878;60.672;2023-12-20T03:38:29;16.50;;;13.13;;
62523;SDS011;53689;56.878;60.672;2023-12-20T03:40:57;19.65;;;13.73;;
62523;SDS011;53689;56.878;60.672;2023-12-20T03:43:25;20.60;;;14.23;;
62523;SDS011;53689;56.878;60.672;2023-12-20T03:45:53;19.77;;;13.48;;
62523;SDS011;53689;56.878;60.672;2023-12-20T03:48:22;18.55;;;13.70;;
62523;SDS011;53689;56.878;60.672;2023-12-20T03:50:50;21.50;;;14.57;;
62523;SDS011;53689;56.878;60.672;2023-12-20T03:53:18;22.70;;;14.55;;
62523;SDS011;53689;56.878;60.672;2023-12-20T03:55:46;23.05;;;15.35;;
62523;SDS011;53689;56.878;60.672;2023-12-20T03:58:14;20.75;;;14.35;;
62523;SDS011;53689;56.878;60.672;2023-12-20T04:00:42;21.27;;;13.65;;
62523;SDS011;53689;56.878;60.672;2023-12-20T04:03:10;20.30;;;14.15;;
62523;SDS011;53689;56.878;60.672;2023-12-20T04:05:39;23.92;;;16.48;;
62523;SDS011;53689;56.878;60.672;2023-12-20T04:08:07;19.08;;;13.23;;
62523;SDS011;53689;56.878;60.672;2023-12-20T04:10:36;24.60;;;16.48;;
62523;SDS011;53689;56.878;60.672;2023-12-20T04:13:04;25.35;;;16.48;;
62523;SDS011;53689;56.878;60.672;2023-12-20T04:15:33;22.75;;;15.85;;
62523;SDS011;53689;56.878;60.672;2023-12-20T04:18:01;28.95;;;18.45;;
62523;SDS011;53689;56.878;60.672;2023-12-20T04:20:29;29.63;;;18.40;;
62523;SDS011;53689;56.878;60.672;2023-12-20T04:23:00;30.65;;;19.42;;
62523;SDS011;53689;56.878;60.672;2023-12-20T04:25:28;28.63;;;17.17;;
62523;SDS011;53689;56.878;60.672;2023-12-20T04:27:56;30.45;;;19.00;;
62523;SDS011;53689;56.878;60.672;2023-12-20T04:30:24;31.92;;;19.65;;
62523;SDS011;53689;56.878;60.672;2023-12-20T04:32:52;29.88;;;18.48;;
62523;SDS011;53689;56.878;60.672;2023-12-20T04:35:19;37.53;;;21.63;;
62523;SDS011;53689;56.878;60.672;2023-12-20T04:37:47;30.42;;;19.27;;
62523;SDS011;53689;56.878;60.672;2023-12-20T04:40:18;27.92;;;17.48;;
62523;SDS011;53689;56.878;60.672;2023-12-20T04:42:46;37.88;;;20.55;;
62523;SDS011;53689;56.878;60.672;2023-12-20T04:45:14;34.15;;;20.88;;
62523;SDS011;53689;56.878;60.672;2023-12-20T04:47:42;37.20;;;21.95;;
62523;SDS011;53689;56.878;60.672;2023-12-20T04:50:11;45.63;;;22.43;;
62523;SDS011;53689;56.878;60.672;2023-12-20T04:52:39;35.92;;;21.15;;
62523;SDS011;53689;56.878;60.672;2023-12-20T04:55:07;35.72;;;22.52;;
62523;SDS011;53689;56.878;60.672;2023-12-20T04:57:37;46.70;;;25.58;;
62523;SDS011;53689;56.878;60.672;2023-12-20T05:00:06;53.72;;;26.20;;
62523;SDS011;53689;56.878;60.672;2023-12-20T05:02:34;41.17;;;22.60;;
62523;SDS011;53689;56.878;60.672;2023-12-20T05:05:02;43.65;;;24.55;;
62523;SDS011;53689;56.878;60.672;2023-12-20T05:07:31;41.80;;;21.67;;
62523;SDS011;53689;56.878;60.672;2023-12-20T05:09:59;42.72;;;22.92;;
62523;SDS011;53689;56.878;60.672;2023-12-20T05:12:26;36.33;;;21.60;;
62523;SDS011;53689;56.878;60.672;2023-12-20T05:14:57;41.65;;;23.30;;
62523;SDS011;53689;56.878;60.672;2023-12-20T05:17:25;41.45;;;23.73;;
62523;SDS011;53689;56.878;60.672;2023-12-20T05:19:54;37.63;;;22.63;;
62523;SDS011;53689;56.878;60.672;2023-12-20T05:22:21;43.83;;;23.98;;
62523;SDS011;53689;56.878;60.672;2023-12-20T05:24:49;52.53;;;27.15;;
62523;SDS011;53689;56.878;60.672;2023-12-20T05:27:17;111.05;;;62.35;;
62523;SDS011;53689;56.878;60.672;2023-12-20T05:29:45;64.63;;;36.53;;
62523;SDS011;53689;56.878;60.672;2023-12-20T05:32:14;61.15;;;30.45;;
62523;SDS011;53689;56.878;60.672;2023-12-20T05:34:42;45.42;;;26.23;;
62523;SDS011;53689;56.878;60.672;2023-12-20T05:37:10;52.17;;;25.50;;
62523;SDS011;53689;56.878;60.672;2023-12-20T05:39:38;49.60;;;26.75;;
62523;SDS011;53689;56.878;60.672;2023-12-20T05:42:06;45.13;;;24.95;;
62523;SDS011;53689;56.878;60.672;2023-12-20T05:44:35;43.88;;;24.63;;
62523;SDS011;53689;56.878;60.672;2023-12-20T05:47:03;50.90;;;27.10;;
62523;SDS011;53689;56.878;60.672;2023-12-20T05:49:33;50.55;;;25.80;;
62523;SDS011;53689;56.878;60.672;2023-12-20T05:54:28;54.75;;;29.77;;
62523;SDS011;53689;56.878;60.672;2023-12-20T05:56:56;51.95;;;28.13;;
62523;SDS011;53689;56.878;60.672;2023-12-20T05:59:24;53.67;;;28.23;;
62523;SDS011;53689;56.878;60.672;2023-12-20T06:01:52;50.50;;;29.27;;
62523;SDS011;53689;56.878;60.672;2023-12-20T06:04:20;47.50;;;26.58;;
62523;SDS011;53689;56.878;60.672;2023-12-20T06:09:18;49.67;;;29.07;;
62523;SDS011;53689;56.878;60.672;2023-12-20T06:11:46;46.30;;;27.98;;
62523;SDS011;53689;56.878;60.672;2023-12-20T06:14:14;46.53;;;28.55;;
62523;SDS011;53689;56.878;60.672;2023-12-20T06:16:42;48.70;;;29.65;;
62523;SDS011;53689;56.878;60.672;2023-12-20T06:19:10;125.78;;;31.00;;
62523;SDS011;53689;56.878;60.672;2023-12-20T06:21:38;124.45;;;33.80;;
62523;SDS011;53689;56.878;60.672;2023-12-20T06:24:12;73.50;;;28.25;;
62523;SDS011;53689;56.878;60.672;2023-12-20T06:26:40;63.83;;;28.15;;
62523;SDS011;53689;56.878;60.672;2023-12-20T06:29:08;73.90;;;26.60;;
62523;SDS011;53689;56.878;60.672;2023-12-20T06:31:36;74.85;;;26.50;;
62523;SDS011;53689;56.878;60.672;2023-12-20T06:34:04;74.28;;;29.10;;
62523;SDS011;53689;56.878;60.672;2023-12-20T06:36:32;83.85;;;29.65;;
62523;SDS011;53689;56.878;60.672;2023-12-20T06:39:00;80.90;;;28.55;;
62523;SDS011;53689;56.878;60.672;2023-12-20T06:41:30;82.45;;;29.45;;
62523;SDS011;53689;56.878;60.672;2023-12-20T06:43:58;75.55;;;29.70;;
62523;SDS011;53689;56.878;60.672;2023-12-20T06:46:26;68.15;;;28.63;;
62523;SDS011;53689;56.878;60.672;2023-12-20T06:48:54;63.03;;;26.38;;
62523;SDS011;53689;56.878;60.672;2023-12-20T06:51:22;57.38;;;24.60;;
62523;SDS011;53689;56.878;60.672;2023-12-20T06:53:50;54.03;;;24.27;;
62523;SDS011;53689;56.878;60.672;2023-12-20T06:56:18;54.35;;;25.33;;
62523;SDS011;53689;56.878;60.672;2023-12-20T06:58:47;54.10;;;25.48;;
62523;SDS011;53689;56.878;60.672;2023-12-20T07:01:15;57.08;;;25.63;;
62523;SDS011;53689;56.878;60.672;2023-12-20T07:03:43;57.85;;;25.50;;
62523;SDS011;53689;56.878;60.672;2023-12-20T07:06:12;50.10;;;23.83;;
62523;SDS011;53689;56.878;60.672;2023-12-20T07:08:40;52.10;;;23.58;;
62523;SDS011;53689;56.878;60.672;2023-12-20T07:11:08;44.08;;;22.33;;
62523;SDS011;53689;56.878;60.672;2023-12-20T07:13:36;53.58;;;22.80;;
62523;SDS011;53689;56.878;60.672;2023-12-20T07:16:05;44.15;;;22.70;;
62523;SDS011;53689;56.878;60.672;2023-12-20T07:21:01;59.00;;;28.50;;
62523;SDS011;53689;56.878;60.672;2023-12-20T07:23:29;52.88;;;29.65;;
62523;SDS011;53689;56.878;60.672;2023-12-20T07:25:57;46.97;;;25.27;;
62523;SDS011;53689;56.878;60.672;2023-12-20T07:28:25;48.10;;;24.58;;
62523;SDS011;53689;56.878;60.672;2023-12-20T07:30:53;41.30;;;24.00;;
62523;SDS011;53689;56.878;60.672;2023-12-20T07:33:23;44.25;;;23.27;;
62523;SDS011;53689;56.878;60.672;2023-12-20T07:35:51;47.20;;;27.85;;
62523;SDS011;53689;56.878;60.672;2023-12-20T07:38:19;144.50;;;110.07;;
62523;SDS011;53689;56.878;60.672;2023-12-20T07:40:47;62.03;;;41.28;;
62523;SDS011;53689;56.878;60.672;2023-12-20T07:43:15;46.15;;;27.40;;
62523;SDS011;53689;56.878;60.672;2023-12-20T07:45:43;46.30;;;25.85;;
62523;SDS011;53689;56.878;60.672;2023-12-20T07:48:11;41.88;;;24.10;;
62523;SDS011;53689;56.878;60.672;2023-12-20T07:50:40;37.70;;;22.13;;
62523;SDS011;53689;56.878;60.672;2023-12-20T07:53:08;41.90;;;23.15;;
62523;SDS011;53689;56.878;60.672;2023-12-20T07:55:36;49.05;;;24.10;;
62523;SDS011;53689;56.878;60.672;2023-12-20T07:58:04;45.63;;;25.48;;
62523;SDS011;53689;56.878;60.672;2023-12-20T08:00:32;49.28;;;29.27;;
62523;SDS011;53689;56.878;60.672;2023-12-20T08:03:00;42.30;;;25.83;;
62523;SDS011;53689;56.878;60.672;2023-12-20T08:05:28;43.08;;;27.67;;
62523;SDS011;53689;56.878;60.672;2023-12-20T08:07:57;44.35;;;27.27;;
62523;SDS011;53689;56.878;60.672;2023-12-20T08:12:53;45.67;;;26.55;;
62523;SDS011;53689;56.878;60.672;2023-12-20T08:15:21;40.42;;;24.48;;
62523;SDS011;53689;56.878;60.672;2023-12-20T08:17:49;42.03;;;26.25;;
62523;SDS011;53689;56.878;60.672;2023-12-20T08:20:17;40.72;;;24.55;;
62523;SDS011;53689;56.878;60.672;2023-12-20T08:22:57;45.97;;;26.83;;
62523;SDS011;53689;56.878;60.672;2023-12-20T08:25:25;45.08;;;26.73;;
62523;SDS011;53689;56.878;60.672;2023-12-20T08:27:54;40.50;;;25.88;;
62523;SDS011;53689;56.878;60.672;2023-12-20T08:30:22;40.50;;;26.58;;
62523;SDS011;53689;56.878;60.672;2023-12-20T08:32:50;42.53;;;25.20;;
62523;SDS011;53689;56.878;60.672;2023-12-20T08:35:18;42.65;;;25.85;;
62523;SDS011;53689;56.878;60.672;2023-12-20T08:37:46;29.08;;;20.05;;
62523;SDS011;53689;56.878;60.672;2023-12-20T08:40:15;37.58;;;24.48;;
62523;SDS011;53689;56.878;60.672;2023-12-20T08:42:43;35.13;;;22.83;;
62523;SDS011;53689;56.878;60.672;2023-12-20T08:45:11;37.50;;;27.42;;
62523;SDS011;53689;56.878;60.672;2023-12-20T08:47:39;37.95;;;28.75;;
62523;SDS011;53689;56.878;60.672;2023-12-20T08:50:07;44.38;;;32.75;;
62523;SDS011;53689;56.878;60.672;2023-12-20T08:52:36;50.35;;;38.63;;
62523;SDS011;53689;56.878;60.672;2023-12-20T08:55:04;45.95;;;35.28;;
62523;SDS011;53689;56.878;60.672;2023-12-20T08:57:34;47.83;;;33.10;;
62523;SDS011;53689;56.878;60.672;2023-12-20T09:00:02;39.58;;;31.35;;
62523;SDS011;53689;56.878;60.672;2023-12-20T09:02:34;45.40;;;34.80;;
62523;SDS011;53689;56.878;60.672;2023-12-20T09:05:01;48.08;;;35.05;;
62523;SDS011;53689;56.878;60.672;2023-12-20T09:07:29;46.38;;;33.35;;
62523;SDS011;53689;56.878;60.672;2023-12-20T09:09:58;45.95;;;31.48;;
62523;SDS011;53689;56.878;60.672;2023-12-20T09:12:26;43.63;;;30.45;;
62523;SDS011;53689;56.878;60.672;2023-12-20T09:14:56;40.35;;;29.60;;
62523;SDS011;53689;56.878;60.672;2023-12-20T09:17:24;41.80;;;29.05;;
62523;SDS011;53689;56.878;60.672;2023-12-20T09:19:52;40.10;;;27.95;;
62523;SDS011;53689;56.878;60.672;2023-12-20T09:22:20;45.20;;;29.73;;
62523;SDS011;53689;56.878;60.672;2023-12-20T09:24:48;41.15;;;30.02;;
62523;SDS011;53689;56.878;60.672;2023-12-20T09:27:16;42.85;;;29.58;;
62523;SDS011;53689;56.878;60.672;2023-12-20T09:29:44;38.90;;;29.15;;
62523;SDS011;53689;56.878;60.672;2023-12-20T09:32:13;45.25;;;30.02;;
62523;SDS011;53689;56.878;60.672;2023-12-20T09:34:41;40.03;;;28.35;;
62523;SDS011;53689;56.878;60.672;2023-12-20T09:37:09;36.78;;;28.60;;
62523;SDS011;53689;56.878;60.672;2023-12-20T09:39:37;40.55;;;28.83;;
62523;SDS011;53689;56.878;60.672;2023-12-20T09:42:05;39.30;;;29.23;;
62523;SDS011;53689;56.878;60.672;2023-12-20T09:44:34;41.03;;;28.67;;
62523;SDS011;53689;56.878;60.672;2023-12-20T09:47:03;41.67;;;28.60;;
62523;SDS011;53689;56.878;60.672;2023-12-20T09:49:33;41.05;;;28.17;;
62523;SDS011;53689;56.878;60.672;2023-12-20T09:54:30;36.65;;;27.63;;
62523;SDS011;53689;56.878;60.672;2023-12-20T09:56:58;39.25;;;27.75;;
62523;SDS011;53689;56.878;60.672;2023-12-20T09:59:26;42.38;;;28.88;;
62523;SDS011;53689;56.878;60.672;2023-12-20T10:01:54;37.55;;;25.05;;
62523;SDS011;53689;56.878;60.672;2023-12-20T10:04:24;35.92;;;24.83;;
62523;SDS011;53689;56.878;60.672;2023-12-20T10:07:01;39.70;;;25.95;;
62523;SDS011;53689;56.878;60.672;2023-12-20T10:09:33;41.10;;;28.38;;
62523;SDS011;53689;56.878;60.672;2023-12-20T10:12:02;40.67;;;29.45;;
62523;SDS011;53689;56.878;60.672;2023-12-20T10:14:30;37.97;;;29.98;;
62523;SDS011;53689;56.878;60.672;2023-12-20T10:17:01;51.83;;;32.47;;
62523;SDS011;53689;56.878;60.672;2023-12-20T10:19:30;43.60;;;32.70;;
62523;SDS011;53689;56.878;60.672;2023-12-20T10:22:00;43.33;;;32.80;;
62523;SDS011;53689;56.878;60.672;2023-12-20T10:24:28;50.55;;;36.38;;
62523;SDS011;53689;56.878;60.672;2023-12-20T10:27:03;42.67;;;33.90;;
62523;SDS011;53689;56.878;60.672;2023-12-20T10:29:32;47.35;;;35.55;;
62523;SDS011;53689;56.878;60.672;2023-12-20T10:32:22;44.70;;;34.67;;
62523;SDS011;53689;56.878;60.672;2023-12-20T10:34:52;49.65;;;34.60;;
62523;SDS011;53689;56.878;60.672;2023-12-20T10:37:22;45.35;;;34.90;;
62523;SDS011;53689;56.878;60.672;2023-12-20T10:39:52;46.13;;;33.65;;
62523;SDS011;53689;56.878;60.672;2023-12-20T10:42:21;48.22;;;33.97;;
62523;SDS011;53689;56.878;60.672;2023-12-20T10:44:49;41.70;;;32.13;;
62523;SDS011;53689;56.878;60.672;2023-12-20T10:47:17;61.70;;;49.33;;
62523;SDS011;53689;56.878;60.672;2023-12-20T10:49:46;43.10;;;34.28;;
62523;SDS011;53689;56.878;60.672;2023-12-20T10:52:14;42.45;;;31.60;;
62523;SDS011;53689;56.878;60.672;2023-12-20T10:54:46;38.10;;;27.65;;
62523;SDS011;53689;56.878;60.672;2023-12-20T10:59:45;35.40;;;23.45;;
62523;SDS011;53689;56.878;60.672;2023-12-20T11:02:17;31.80;;;22.70;;
62523;SDS011;53689;56.878;60.672;2023-12-20T11:04:47;35.80;;;23.92;;
62523;SDS011;53689;56.878;60.672;2023-12-20T11:07:21;32.05;;;20.75;;
62523;SDS011;53689;56.878;60.672;2023-12-20T11:09:56;31.77;;;21.35;;
62523;SDS011;53689;56.878;60.672;2023-12-20T11:12:32;32.50;;;21.48;;
62523;SDS011;53689;56.878;60.672;2023-12-20T11:15:07;33.20;;;23.23;;
62523;SDS011;53689;56.878;60.672;2023-12-20T11:17:35;32.47;;;22.65;;
62523;SDS011;53689;56.878;60.672;2023-12-20T11:20:07;34.47;;;23.10;;
62523;SDS011;53689;56.878;60.672;2023-12-20T11:22:36;36.28;;;23.73;;
62523;SDS011;53689;56.878;60.672;2023-12-20T11:25:09;33.63;;;21.83;;
62523;SDS011;53689;56.878;60.672;2023-12-20T11:27:40;37.05;;;23.10;;
62523;SDS011;53689;56.878;60.672;2023-12-20T11:30:10;32.97;;;21.92;;
62523;SDS011;53689;56.878;60.672;2023-12-20T11:32:39;33.70;;;22.10;;
62523;SDS011;53689;56.878;60.672;2023-12-20T11:35:17;33.53;;;20.52;;
62523;SDS011;53689;56.878;60.672;2023-12-20T11:37:47;36.90;;;21.00;;
62523;SDS011;53689;56.878;60.672;2023-12-20T11:40:17;30.85;;;19.52;;
62523;SDS011;53689;56.878;60.672;2023-12-20T11:42:48;32.65;;;20.33;;
62523;SDS011;53689;56.878;60.672;2023-12-20T11:45:17;30.27;;;20.42;;
62523;SDS011;53689;56.878;60.672;2023-12-20T11:47:46;28.00;;;20.83;;
62523;SDS011;53689;56.878;60.672;2023-12-20T11:50:15;30.15;;;19.02;;
62523;SDS011;53689;56.878;60.672;2023-12-20T11:52:43;30.70;;;18.52;;
62523;SDS011;53689;56.878;60.672;2023-12-20T11:55:11;37.60;;;19.35;;
62523;SDS011;53689;56.878;60.672;2023-12-20T11:57:42;28.63;;;17.02;;
62523;SDS011;53689;56.878;60.672;2023-12-20T12:00:11;35.53;;;18.08;;
62523;SDS011;53689;56.878;60.672;2023-12-20T12:02:40;31.55;;;16.58;;
62523;SDS011;53689;56.878;60.672;2023-12-20T12:05:08;27.13;;;16.87;;
62523;SDS011;53689;56.878;60.672;2023-12-20T12:07:37;28.55;;;16.33;;
62523;SDS011;53689;56.878;60.672;2023-12-20T12:10:05;29.23;;;15.82;;
62523;SDS011;53689;56.878;60.672;2023-12-20T12:12:35;27.27;;;15.85;;
62523;SDS011;53689;56.878;60.672;2023-12-20T12:15:05;28.48;;;15.00;;
62523;SDS011;53689;56.878;60.672;2023-12-20T12:17:34;25.00;;;15.30;;
62523;SDS011;53689;56.878;60.672;2023-12-20T12:20:04;32.33;;;17.90;;
62523;SDS011;53689;56.878;60.672;2023-12-20T12:22:35;22.73;;;16.17;;
62523;SDS011;53689;56.878;60.672;2023-12-20T12:25:09;36.22;;;21.88;;
62523;SDS011;53689;56.878;60.672;2023-12-20T12:27:39;29.75;;;20.13;;
62523;SDS011;53689;56.878;60.672;2023-12-20T12:30:10;31.38;;;20.05;;
62523;SDS011;53689;56.878;60.672;2023-12-20T12:32:38;33.92;;;19.23;;
62523;SDS011;53689;56.878;60.672;2023-12-20T12:35:06;31.30;;;19.80;;
62523;SDS011;53689;56.878;60.672;2023-12-20T12:37:36;36.00;;;24.85;;
62523;SDS011;53689;56.878;60.672;2023-12-20T12:40:06;33.78;;;20.27;;
62523;SDS011;53689;56.878;60.672;2023-12-20T12:42:36;31.17;;;19.98;;
62523;SDS011;53689;56.878;60.672;2023-12-20T12:45:05;26.40;;;16.92;;
62523;SDS011;53689;56.878;60.672;2023-12-20T12:50:03;27.30;;;17.25;;
62523;SDS011;53689;56.878;60.672;2023-12-20T12:55:00;31.23;;;19.42;;
62523;SDS011;53689;56.878;60.672;2023-12-20T12:57:28;32.20;;;19.00;;
62523;SDS011;53689;56.878;60.672;2023-12-20T12:59:56;37.63;;;24.95;;
62523;SDS011;53689;56.878;60.672;2023-12-20T13:02:24;34.00;;;20.52;;
62523;SDS011;53689;56.878;60.672;2023-12-20T13:04:53;36.05;;;26.85;;
62523;SDS011;53689;56.878;60.672;2023-12-20T13:07:21;31.10;;;20.95;;
62523;SDS011;53689;56.878;60.672;2023-12-20T13:09:49;35.08;;;23.85;;
62523;SDS011;53689;56.878;60.672;2023-12-20T13:12:17;26.35;;;17.63;;
62523;SDS011;53689;56.878;60.672;2023-12-20T13:14:45;29.85;;;20.33;;
62523;SDS011;53689;56.878;60.672;2023-12-20T13:17:13;24.95;;;18.02;;
62523;SDS011;53689;56.878;60.672;2023-12-20T13:19:40;32.47;;;17.77;;
62523;SDS011;53689;56.878;60.672;2023-12-20T13:22:10;29.20;;;16.98;;
62523;SDS011;53689;56.878;60.672;2023-12-20T13:24:38;35.35;;;24.20;;
62523;SDS011;53689;56.878;60.672;2023-12-20T13:27:06;29.08;;;19.10;;
62523;SDS011;53689;56.878;60.672;2023-12-20T13:29:34;27.50;;;17.27;;
62523;SDS011;53689;56.878;60.672;2023-12-20T13:32:05;20.40;;;13.13;;
62523;SDS011;53689;56.878;60.672;2023-12-20T13:34:33;23.55;;;14.07;;
62523;SDS011;53689;56.878;60.672;2023-12-20T13:37:02;22.02;;;13.15;;
62523;SDS011;53689;56.878;60.672;2023-12-20T13:39:32;21.35;;;12.68;;
62523;SDS011;53689;56.878;60.672;2023-12-20T13:42:00;23.63;;;13.60;;
62523;SDS011;53689;56.878;60.672;2023-12-20T13:44:28;23.90;;;13.95;;
62523;SDS011;53689;56.878;60.672;2023-12-20T13:46:55;21.95;;;13.32;;
62523;SDS011;53689;56.878;60.672;2023-12-20T13:49:23;22.27;;;12.77;;
62523;SDS011;53689;56.878;60.672;2023-12-20T13:51:51;22.58;;;13.50;;
62523;SDS011;53689;56.878;60.672;2023-12-20T13:54:19;24.50;;;13.73;;
62523;SDS011;53689;56.878;60.672;2023-12-20T13:56:48;23.20;;;12.35;;
62523;SDS011;53689;56.878;60.672;2023-12-20T13:59:34;20.52;;;12.07;;
62523;SDS011;53689;56.878;60.672;2023-12-20T14:02:02;24.42;;;13.75;;
62523;SDS011;53689;56.878;60.672;2023-12-20T14:04:31;22.40;;;12.57;;
62523;SDS011;53689;56.878;60.672;2023-12-20T14:07:12;23.85;;;13.90;;
62523;SDS011;53689;56.878;60.672;2023-12-20T14:09:40;23.83;;;13.60;;
62523;SDS011;53689;56.878;60.672;2023-12-20T14:12:09;20.65;;;12.82;;
62523;SDS011;53689;56.878;60.672;2023-12-20T14:14:37;19.17;;;11.35;;
62523;SDS011;53689;56.878;60.672;2023-12-20T14:17:05;19.73;;;11.20;;
62523;SDS011;53689;56.878;60.672;2023-12-20T14:19:33;16.55;;;10.18;;
62523;SDS011;53689;56.878;60.672;2023-12-20T14:22:01;18.20;;;10.52;;
62523;SDS011;53689;56.878;60.672;2023-12-20T14:24:29;19.85;;;12.35;;
62523;SDS011;53689;56.878;60.672;2023-12-20T14:26:57;43.08;;;34.15;;
62523;SDS011;53689;56.878;60.672;2023-12-20T14:29:27;53.88;;;45.22;;
62523;SDS011;53689;56.878;60.672;2023-12-20T14:31:56;28.08;;;20.17;;
62523;SDS011;53689;56.878;60.672;2023-12-20T14:34:23;18.17;;;12.52;;
62523;SDS011;53689;56.878;60.672;2023-12-20T14:36:51;18.63;;;10.98;;